createdAt,value
2018-03-02T00:00:21.557Z,-8.0
2018-03-02T00:01:23.200Z,-8.0
2018-03-02T00:02:24.836Z,-8.0
2018-03-02T00:03:26.481Z,-7.9
2018-03-02T00:04:28.175Z,-7.9
2018-03-02T00:05:29.829Z,-7.9
2018-03-02T00:06:31.478Z,-7.8
2018-03-02T00:07:33.118Z,-7.9
2018-03-02T00:08:34.765Z,-7.9
2018-03-02T00:09:36.416Z,-8.0
2018-03-02T00:10:38.056Z,-7.9
2018-03-02T00:11:39.698Z,-7.9
2018-03-02T00:12:41.344Z,-8.0
2018-03-02T00:13:42.991Z,-8.1
2018-03-02T00:14:44.630Z,-8.0
2018-03-02T00:15:46.285Z,-8.0
2018-03-02T00:16:47.929Z,-8.3
2018-03-02T00:17:49.577Z,-8.1
2018-03-02T00:18:51.224Z,-8.1
2018-03-02T00:19:52.874Z,-8.1
2018-03-02T00:20:54.512Z,-8.0
2018-03-02T00:21:56.151Z,-7.9
2018-03-02T00:22:57.805Z,-8.0
2018-03-02T00:23:59.444Z,-7.9
2018-03-02T00:25:01.090Z,-8.1
2018-03-02T00:26:02.728Z,-8.2
2018-03-02T00:27:04.386Z,-8.1
2018-03-02T00:28:06.016Z,-7.9
2018-03-02T00:29:07.657Z,-8.0
2018-03-02T00:30:09.303Z,-7.9
2018-03-02T00:31:10.947Z,-8.0
2018-03-02T00:32:12.595Z,-8.0
2018-03-02T00:33:14.236Z,-8.0
2018-03-02T00:34:15.885Z,-8.1
2018-03-02T00:35:17.528Z,-8.0
2018-03-02T00:36:19.180Z,-8.0
2018-03-02T00:37:20.818Z,-8.0
2018-03-02T00:38:22.486Z,-8.0
2018-03-02T00:39:24.114Z,-8.0
2018-03-02T00:40:25.754Z,-8.0
2018-03-02T00:41:27.405Z,-8.1
2018-03-02T00:42:29.047Z,-8.1
2018-03-02T00:43:30.697Z,-8.0
2018-03-02T00:44:32.348Z,-8.2
2018-03-02T00:45:33.985Z,-8.1
2018-03-02T00:46:35.628Z,-8.2
2018-03-02T00:47:37.271Z,-8.1
2018-03-02T00:48:38.925Z,-8.0
2018-03-02T00:49:40.568Z,-8.1
2018-03-02T00:50:42.211Z,-8.2
2018-03-02T00:51:43.861Z,-8.1
2018-03-02T00:52:45.498Z,-8.2
2018-03-02T00:53:47.142Z,-8.1
2018-03-02T00:54:48.784Z,-8.0
2018-03-02T00:55:50.440Z,-8.2
2018-03-02T00:56:52.074Z,-8.3
2018-03-02T00:57:53.740Z,-8.2
2018-03-02T00:58:55.388Z,-8.1
2018-03-02T00:59:57.032Z,-8.1
2018-03-02T01:00:58.672Z,-8.2
2018-03-02T01:02:00.316Z,-8.3
2018-03-02T01:03:01.961Z,-8.3
2018-03-02T01:04:03.608Z,-8.3
2018-03-02T01:05:05.243Z,-8.2
2018-03-02T01:06:06.888Z,-8.2
2018-03-02T01:07:08.530Z,-8.3
2018-03-02T01:08:10.179Z,-8.2
2018-03-02T01:09:11.816Z,-8.3
2018-03-02T01:10:13.463Z,-8.1
2018-03-02T01:11:15.124Z,-8.1
2018-03-02T01:12:16.775Z,-8.3
2018-03-02T01:13:18.416Z,-8.2
2018-03-02T01:14:20.061Z,-8.2
2018-03-02T01:15:21.708Z,-8.2
2018-03-02T01:16:23.352Z,-8.3
2018-03-02T01:17:25.015Z,-8.3
2018-03-02T01:18:26.659Z,-8.2
2018-03-02T01:19:28.300Z,-8.2
2018-03-02T01:20:29.932Z,-8.3
2018-03-02T01:21:31.573Z,-8.4
2018-03-02T01:22:33.215Z,-8.2
2018-03-02T01:23:34.865Z,-8.3
2018-03-02T01:24:36.500Z,-8.3
2018-03-02T01:25:38.147Z,-8.3
2018-03-02T01:26:39.810Z,-8.3
2018-03-02T01:27:41.455Z,-8.4
2018-03-02T01:28:43.100Z,-8.3
2018-03-02T01:29:44.746Z,-8.2
2018-03-02T01:30:46.397Z,-8.5
2018-03-02T01:31:48.040Z,-8.4
2018-03-02T01:32:49.682Z,-8.3
2018-03-02T01:33:51.320Z,-8.4
2018-03-02T01:34:52.962Z,-8.6
2018-03-02T01:35:54.607Z,-8.4
2018-03-02T01:36:56.250Z,-8.5
2018-03-02T01:37:57.897Z,-8.4
2018-03-02T01:38:59.545Z,-8.4
2018-03-02T01:40:01.200Z,-8.4
2018-03-02T01:41:02.835Z,-8.3
2018-03-02T01:42:04.494Z,-8.4
2018-03-02T01:43:06.139Z,-8.5
2018-03-02T01:44:07.792Z,-8.4
2018-03-02T01:45:09.428Z,-8.4
2018-03-02T01:46:11.074Z,-8.3
2018-03-02T01:47:12.712Z,-8.3
2018-03-02T01:48:14.356Z,-8.5
2018-03-02T01:49:16.004Z,-8.4
2018-03-02T01:50:17.651Z,-8.4
2018-03-02T01:51:19.302Z,-8.5
2018-03-02T01:52:20.947Z,-8.5
2018-03-02T01:53:22.604Z,-8.5
2018-03-02T01:54:24.250Z,-8.4
2018-03-02T01:55:25.897Z,-8.4
2018-03-02T01:56:27.553Z,-8.4
2018-03-02T01:57:29.205Z,-8.3
2018-03-02T01:58:30.847Z,-8.4
2018-03-02T01:59:32.499Z,-8.4
2018-03-02T02:00:34.140Z,-8.3
2018-03-02T02:01:35.788Z,-8.3
2018-03-02T02:02:37.428Z,-8.4
2018-03-02T02:03:39.070Z,-8.4
2018-03-02T02:04:40.718Z,-8.4
2018-03-02T02:05:42.366Z,-8.4
2018-03-02T02:06:44.056Z,-8.5
2018-03-02T02:07:45.697Z,-8.5
2018-03-02T02:08:47.342Z,-8.4
2018-03-02T02:09:48.981Z,-8.4
2018-03-02T02:10:50.626Z,-8.3
2018-03-02T02:11:52.268Z,-8.3
2018-03-02T02:12:53.915Z,-8.4
2018-03-02T02:13:55.558Z,-8.3
2018-03-02T02:14:57.201Z,-8.3
2018-03-02T02:15:58.849Z,-8.3
2018-03-02T02:17:00.505Z,-8.3
2018-03-02T02:18:02.157Z,-8.3
2018-03-02T02:19:03.804Z,-8.4
2018-03-02T02:20:05.448Z,-8.3
2018-03-02T02:21:07.095Z,-8.2
2018-03-02T02:22:08.742Z,-8.1
2018-03-02T02:23:10.388Z,-8.3
2018-03-02T02:24:12.033Z,-8.2
2018-03-02T02:25:13.672Z,-8.2
2018-03-02T02:26:15.324Z,-8.2
2018-03-02T02:27:16.967Z,-8.2
2018-03-02T02:28:18.611Z,-8.3
2018-03-02T02:29:20.247Z,-8.2
2018-03-02T02:30:21.903Z,-8.1
2018-03-02T02:31:23.545Z,-8.0
2018-03-02T02:32:25.195Z,-8.3
2018-03-02T02:33:26.827Z,-8.1
2018-03-02T02:34:28.528Z,-8.3
2018-03-02T02:35:30.170Z,-8.1
2018-03-02T02:36:31.816Z,-8.1
2018-03-02T02:37:33.499Z,-8.1
2018-03-02T02:38:35.141Z,-8.2
2018-03-02T02:39:37.304Z,-8.2
2018-03-02T02:40:38.948Z,-8.2
2018-03-02T02:41:40.609Z,-8.2
2018-03-02T02:42:42.251Z,-8.2
2018-03-02T02:43:43.904Z,-8.0
2018-03-02T02:44:45.558Z,-8.2
2018-03-02T02:45:47.202Z,-8.2
2018-03-02T02:46:48.852Z,-8.0
2018-03-02T02:47:50.488Z,-8.1
2018-03-02T02:48:52.128Z,-8.0
2018-03-02T02:49:53.769Z,-8.1
2018-03-02T02:50:55.421Z,-8.1
2018-03-02T02:51:57.107Z,-8.2
2018-03-02T02:52:58.742Z,-8.2
2018-03-02T02:54:00.387Z,-8.1
2018-03-02T02:55:02.047Z,-8.0
2018-03-02T03:01:29.060Z,-8.1
2018-03-02T03:02:30.655Z,-8.2
2018-03-02T03:03:32.308Z,-8.3
2018-03-02T03:04:33.942Z,-8.2
2018-03-02T03:05:35.585Z,-8.1
2018-03-02T03:06:37.227Z,-8.3
2018-03-02T03:07:38.865Z,-8.3
2018-03-02T03:08:40.506Z,-8.3
2018-03-02T03:09:42.154Z,-8.2
2018-03-02T03:10:43.791Z,-8.2
2018-03-02T03:11:45.433Z,-8.0
2018-03-02T03:12:47.074Z,-8.0
2018-03-02T03:13:48.769Z,-8.1
2018-03-02T03:14:50.411Z,-8.1
2018-03-02T03:15:52.058Z,-8.1
2018-03-02T03:16:53.695Z,-8.1
2018-03-02T03:17:55.336Z,-8.1
2018-03-02T03:18:56.976Z,-8.1
2018-03-02T03:19:58.626Z,-8.1
2018-03-02T03:21:00.270Z,-8.1
2018-03-02T03:22:01.924Z,-8.0
2018-03-02T03:23:03.578Z,-7.9
2018-03-02T03:24:05.218Z,-8.0
2018-03-02T03:25:06.870Z,-8.0
2018-03-02T03:26:08.509Z,-8.1
2018-03-02T03:27:10.158Z,-8.0
2018-03-02T03:28:11.799Z,-8.0
2018-03-02T03:29:13.443Z,-8.0
2018-03-02T03:30:15.094Z,-8.1
2018-03-02T03:31:16.734Z,-8.1
2018-03-02T03:32:18.376Z,-8.1
2018-03-02T03:33:20.023Z,-8.0
2018-03-02T03:34:21.673Z,-8.1
2018-03-02T03:35:23.324Z,-8.1
2018-03-02T03:36:24.971Z,-8.1
2018-03-02T03:37:26.628Z,-8.0
2018-03-02T03:38:28.276Z,-8.0
2018-03-02T03:39:29.918Z,-8.1
2018-03-02T03:40:31.563Z,-8.1
2018-03-02T03:41:33.212Z,-8.0
2018-03-02T03:42:34.856Z,-8.0
2018-03-02T03:43:36.541Z,-8.0
2018-03-02T03:44:38.158Z,-8.1
2018-03-02T03:45:39.796Z,-8.0
2018-03-02T03:46:41.452Z,-8.1
2018-03-02T03:47:43.093Z,-8.0
2018-03-02T03:48:44.740Z,-8.0
2018-03-02T03:49:46.388Z,-8.1
2018-03-02T03:50:48.037Z,-8.1
2018-03-02T03:51:49.683Z,-8.0
2018-03-02T03:52:51.332Z,-8.1
2018-03-02T03:53:52.976Z,-8.0
2018-03-02T03:54:54.620Z,-8.1
2018-03-02T03:55:56.268Z,-8.1
2018-03-02T03:56:57.903Z,-8.1
2018-03-02T03:57:59.556Z,-8.2
2018-03-02T03:59:01.209Z,-8.0
2018-03-02T04:00:02.847Z,-8.1
2018-03-02T04:01:04.499Z,-8.1
2018-03-02T04:02:06.148Z,-8.2
2018-03-02T04:03:07.792Z,-8.1
2018-03-02T04:04:09.436Z,-8.1
2018-03-02T04:05:11.085Z,-8.0
2018-03-02T04:06:12.719Z,-7.9
2018-03-02T04:07:14.373Z,-8.0
2018-03-02T04:08:16.018Z,-8.0
2018-03-02T04:09:17.662Z,-8.0
2018-03-02T04:10:19.307Z,-8.1
2018-03-02T04:11:20.953Z,-8.2
2018-03-02T04:12:22.603Z,-8.1
2018-03-02T04:13:24.240Z,-8.1
2018-03-02T04:14:25.884Z,-8.2
2018-03-02T04:15:27.524Z,-8.2
2018-03-02T04:16:29.177Z,-8.1
2018-03-02T04:17:30.825Z,-8.2
2018-03-02T04:18:32.475Z,-8.0
2018-03-02T04:19:34.125Z,-8.1
2018-03-02T04:20:35.775Z,-8.1
2018-03-02T04:21:37.421Z,-8.1
2018-03-02T04:22:39.064Z,-8.2
2018-03-02T04:23:40.708Z,-8.1
2018-03-02T04:24:42.360Z,-8.1
2018-03-02T04:25:44.016Z,-8.0
2018-03-02T04:26:45.665Z,-8.1
2018-03-02T04:27:47.304Z,-8.1
2018-03-02T04:28:48.949Z,-8.1
2018-03-02T04:29:50.594Z,-8.1
2018-03-02T04:30:52.239Z,-8.3
2018-03-02T04:31:53.885Z,-8.2
2018-03-02T04:32:55.523Z,-8.2
2018-03-02T04:33:57.171Z,-8.1
2018-03-02T04:34:58.822Z,-8.1
2018-03-02T04:36:00.464Z,-8.0
2018-03-02T04:37:02.113Z,-8.0
2018-03-02T04:38:03.755Z,-8.0
2018-03-02T04:39:05.393Z,-7.9
2018-03-02T04:40:07.036Z,-8.0
2018-03-02T04:41:08.684Z,-8.1
2018-03-02T04:42:10.331Z,-8.0
2018-03-02T04:43:11.974Z,-8.1
2018-03-02T04:44:13.627Z,-7.9
2018-03-02T04:45:15.269Z,-8.1
2018-03-02T04:46:16.921Z,-8.0
2018-03-02T04:47:18.575Z,-8.0
2018-03-02T04:48:20.220Z,-8.0
2018-03-02T04:49:21.865Z,-8.0
2018-03-02T04:50:23.552Z,-7.9
2018-03-02T04:51:25.199Z,-8.0
2018-03-02T04:52:26.839Z,-8.0
2018-03-02T04:53:28.493Z,-8.0
2018-03-02T04:54:30.133Z,-8.0
2018-03-02T04:55:31.777Z,-7.9
2018-03-02T04:56:33.442Z,-8.0
2018-03-02T04:57:35.072Z,-7.9
2018-03-02T04:58:36.718Z,-8.0
2018-03-02T04:59:38.366Z,-8.0
2018-03-02T05:00:40.015Z,-7.9
2018-03-02T05:01:41.668Z,-7.9
2018-03-02T05:02:43.321Z,-8.0
2018-03-02T05:03:44.961Z,-8.0
2018-03-02T05:04:46.605Z,-8.0
2018-03-02T05:05:48.244Z,-8.0
2018-03-02T05:06:49.886Z,-8.1
2018-03-02T05:07:51.536Z,-8.1
2018-03-02T05:08:53.179Z,-8.0
2018-03-02T05:09:54.830Z,-8.0
2018-03-02T05:10:56.474Z,-8.2
2018-03-02T05:11:58.120Z,-8.2
2018-03-02T05:12:59.772Z,-8.0
2018-03-02T05:14:01.418Z,-8.1
2018-03-02T05:15:03.052Z,-8.1
2018-03-02T05:16:04.697Z,-8.0
2018-03-02T05:17:06.334Z,-8.1
2018-03-02T05:18:07.986Z,-8.2
2018-03-02T05:19:09.627Z,-8.1
2018-03-02T05:20:11.274Z,-8.1
2018-03-02T05:21:12.915Z,-8.1
2018-03-02T05:22:14.576Z,-8.2
2018-03-02T05:23:16.209Z,-8.2
2018-03-02T05:24:17.864Z,-8.2
2018-03-02T05:25:19.505Z,-8.2
2018-03-02T05:26:21.143Z,-8.1
2018-03-02T05:27:22.786Z,-8.2
2018-03-02T05:28:24.432Z,-8.1
2018-03-02T05:29:26.079Z,-8.1
2018-03-02T05:30:27.737Z,-8.1
2018-03-02T05:31:29.387Z,-8.1
2018-03-02T05:32:31.028Z,-8.2
2018-03-02T05:33:32.681Z,-8.1
2018-03-02T05:34:34.318Z,-8.3
2018-03-02T05:35:35.965Z,-8.2
2018-03-02T05:36:37.633Z,-8.3
2018-03-02T05:37:39.251Z,-8.3
2018-03-02T05:38:40.910Z,-8.3
2018-03-02T05:39:42.548Z,-8.2
2018-03-02T05:40:44.194Z,-8.3
2018-03-02T05:41:45.840Z,-8.3
2018-03-02T05:42:47.484Z,-8.2
2018-03-02T05:43:49.124Z,-8.3
2018-03-02T05:44:50.776Z,-8.3
2018-03-02T05:45:52.457Z,-8.2
2018-03-02T05:46:54.078Z,-8.2
2018-03-02T05:47:55.715Z,-8.1
2018-03-02T05:48:57.357Z,-8.3
2018-03-02T05:49:59.011Z,-8.4
2018-03-02T05:51:00.663Z,-8.3
2018-03-02T05:52:02.319Z,-8.3
2018-03-02T05:53:03.971Z,-8.3
2018-03-02T05:54:05.600Z,-8.3
2018-03-02T05:55:07.251Z,-8.3
2018-03-02T05:56:08.901Z,-8.3
2018-03-02T05:57:10.555Z,-8.3
2018-03-02T05:58:12.196Z,-8.3
2018-03-02T05:59:13.848Z,-8.3
2018-03-02T06:00:16.719Z,-8.4
2018-03-02T06:01:18.377Z,-8.3
2018-03-02T06:02:20.109Z,-8.2
2018-03-02T06:03:21.748Z,-8.3
2018-03-02T06:04:23.409Z,-8.2
2018-03-02T06:05:25.071Z,-8.2
2018-03-02T06:06:26.713Z,-8.2
2018-03-02T06:07:28.380Z,-8.3
2018-03-02T06:08:30.039Z,-8.3
2018-03-02T06:09:31.682Z,-8.3
2018-03-02T06:10:33.327Z,-8.4
2018-03-02T06:11:34.983Z,-8.5
2018-03-02T06:12:36.625Z,-8.4
2018-03-02T06:13:38.273Z,-8.5
2018-03-02T06:14:39.938Z,-8.3
2018-03-02T06:15:41.582Z,-8.5
2018-03-02T06:16:43.228Z,-8.5
2018-03-02T06:17:44.875Z,-8.5
2018-03-02T06:18:46.526Z,-8.5
2018-03-02T06:19:48.197Z,-8.4
2018-03-02T06:20:49.841Z,-8.4
2018-03-02T06:21:51.504Z,-8.5
2018-03-02T06:22:53.142Z,-8.5
2018-03-02T06:23:54.784Z,-8.5
2018-03-02T06:24:56.448Z,-8.5
2018-03-02T06:25:58.083Z,-8.6
2018-03-02T06:26:59.736Z,-8.5
2018-03-02T06:28:01.393Z,-8.5
2018-03-02T06:29:03.046Z,-8.6
2018-03-02T06:30:04.699Z,-8.5
2018-03-02T06:31:06.353Z,-8.6
2018-03-02T06:32:07.994Z,-8.6
2018-03-02T06:33:09.649Z,-8.6
2018-03-02T06:34:11.338Z,-8.5
2018-03-02T06:35:12.983Z,-8.6
2018-03-02T06:36:14.640Z,-8.7
2018-03-02T06:37:16.295Z,-8.7
2018-03-02T06:38:17.934Z,-8.7
2018-03-02T06:39:19.580Z,-8.7
2018-03-02T06:40:21.238Z,-8.7
2018-03-02T06:41:22.876Z,-8.6
2018-03-02T06:42:24.535Z,-8.5
2018-03-02T06:43:26.182Z,-8.5
2018-03-02T06:44:27.824Z,-8.3
2018-03-02T06:45:29.476Z,-8.5
2018-03-02T06:46:31.134Z,-8.6
2018-03-02T06:47:32.777Z,-8.5
2018-03-02T06:48:34.431Z,-8.6
2018-03-02T06:49:36.086Z,-8.5
2018-03-02T06:50:37.738Z,-8.5
2018-03-02T06:51:39.391Z,-8.5
2018-03-02T06:52:41.038Z,-8.4
2018-03-02T06:53:42.679Z,-8.5
2018-03-02T06:54:44.337Z,-8.4
2018-03-02T07:00:56.132Z,-8.3
2018-03-02T07:01:57.783Z,-8.3
2018-03-02T07:02:59.433Z,-8.2
2018-03-02T07:04:01.088Z,-8.3
2018-03-02T07:05:02.740Z,-8.2
2018-03-02T07:06:04.389Z,-8.2
2018-03-02T07:07:06.085Z,-8.1
2018-03-02T07:08:07.687Z,-8.0
2018-03-02T07:09:09.339Z,-7.9
2018-03-02T07:10:11.008Z,-7.9
2018-03-02T07:11:12.655Z,-7.9
2018-03-02T07:12:14.310Z,-7.9
2018-03-02T07:13:15.964Z,-7.5
2018-03-02T07:14:17.611Z,-7.5
2018-03-02T07:15:19.283Z,-7.5
2018-03-02T07:16:20.926Z,-7.3
2018-03-02T07:17:22.589Z,-7.2
2018-03-02T07:18:24.232Z,-7.3
2018-03-02T07:19:25.884Z,-7.1
2018-03-02T07:20:27.545Z,-7.1
2018-03-02T07:21:29.262Z,-7.0
2018-03-02T07:22:30.858Z,-7.0
2018-03-02T07:23:32.515Z,-6.9
2018-03-02T07:24:34.157Z,-7.2
2018-03-02T07:25:35.821Z,-7.1
2018-03-02T07:26:37.477Z,-7.4
2018-03-02T07:27:39.139Z,-7.3
2018-03-02T07:28:40.802Z,-6.8
2018-03-02T07:29:42.453Z,-6.7
2018-03-02T07:30:44.105Z,-6.7
2018-03-02T07:31:45.756Z,-6.5
2018-03-02T07:32:47.408Z,-6.4
2018-03-02T07:33:49.060Z,-6.8
2018-03-02T07:34:50.721Z,-6.7
2018-03-02T07:35:52.372Z,-6.7
2018-03-02T07:36:54.029Z,-6.9
2018-03-02T07:37:55.681Z,-6.6
2018-03-02T07:38:57.347Z,-6.5
2018-03-02T07:39:58.990Z,-6.1
2018-03-02T07:41:00.651Z,-5.9
2018-03-02T07:42:02.301Z,-5.7
2018-03-02T07:43:03.970Z,-5.4
2018-03-02T07:44:05.622Z,-5.9
2018-03-02T07:45:07.278Z,-6.7
2018-03-02T07:46:08.941Z,-6.4
2018-03-02T07:47:10.591Z,-6.0
2018-03-02T07:48:12.245Z,-5.6
2018-03-02T07:49:13.900Z,-5.7
2018-03-02T07:50:15.563Z,-5.4
2018-03-02T07:51:17.246Z,-5.5
2018-03-02T07:52:18.899Z,-5.1
2018-03-02T07:53:20.565Z,-5.0
2018-03-02T07:54:22.221Z,-5.6
2018-03-02T07:55:23.868Z,-5.5
2018-03-02T07:56:25.529Z,-5.0
2018-03-02T07:57:27.231Z,-4.7
2018-03-02T07:58:28.850Z,-4.7
2018-03-02T07:59:30.516Z,-4.9
2018-03-02T08:00:32.166Z,-4.7
2018-03-02T08:01:33.827Z,-4.6
2018-03-02T08:02:35.497Z,-5.0
2018-03-02T08:03:37.151Z,-4.7
2018-03-02T08:04:38.824Z,-4.6
2018-03-02T08:05:40.489Z,-4.3
2018-03-02T08:06:42.154Z,-4.5
2018-03-02T08:07:43.812Z,-4.8
2018-03-02T08:08:45.467Z,-4.5
2018-03-02T08:09:47.126Z,-4.6
2018-03-02T08:10:48.777Z,-5.0
2018-03-02T08:11:50.441Z,-4.8
2018-03-02T08:12:52.103Z,-4.7
2018-03-02T08:13:53.757Z,-4.7
2018-03-02T08:14:55.426Z,-4.3
2018-03-02T08:15:57.085Z,-4.8
2018-03-02T08:16:58.730Z,-4.6
2018-03-02T08:18:00.388Z,-4.5
2018-03-02T08:19:02.063Z,-5.3
2018-03-02T08:20:03.709Z,-5.0
2018-03-02T08:21:05.363Z,-5.4
2018-03-02T08:22:07.029Z,-5.6
2018-03-02T08:23:08.686Z,-5.3
2018-03-02T08:24:10.352Z,-4.6
2018-03-02T08:25:12.017Z,-4.7
2018-03-02T08:26:13.679Z,-4.4
2018-03-02T08:27:15.342Z,-4.1
2018-03-02T08:28:17.002Z,-4.6
2018-03-02T08:29:18.663Z,-5.0
2018-03-02T08:30:20.315Z,-5.0
2018-03-02T08:31:21.974Z,-5.7
2018-03-02T08:32:23.627Z,-5.5
2018-03-02T08:33:25.291Z,-5.1
2018-03-02T08:34:26.947Z,-4.7
2018-03-02T08:35:28.622Z,-4.9
2018-03-02T08:36:30.270Z,-4.6
2018-03-02T08:37:31.928Z,-4.6
2018-03-02T08:38:33.652Z,-4.0
2018-03-02T08:39:35.317Z,-4.0
2018-03-02T08:40:36.978Z,-3.6
2018-03-02T08:41:38.638Z,-3.7
2018-03-02T08:42:40.301Z,-3.8
2018-03-02T08:43:41.969Z,-3.6
2018-03-02T08:44:43.617Z,-3.3
2018-03-02T08:45:45.285Z,-2.4
2018-03-02T08:46:46.965Z,-2.2
2018-03-02T08:47:48.677Z,-2.4
2018-03-02T08:48:50.342Z,-2.1
2018-03-02T08:49:52.054Z,-2.2
2018-03-02T08:50:53.666Z,-2.8
2018-03-02T08:51:55.319Z,-3.7
2018-03-02T08:52:56.970Z,-2.8
2018-03-02T08:53:58.645Z,-3.3
2018-03-02T08:55:00.307Z,-1.7
2018-03-02T08:56:01.973Z,-1.5
2018-03-02T08:57:03.628Z,-1.7
2018-03-02T08:58:05.287Z,-1.8
2018-03-02T08:59:06.951Z,-2.4
2018-03-02T09:00:08.632Z,-2.8
2018-03-02T09:01:10.290Z,-1.7
2018-03-02T09:02:11.959Z,-1.6
2018-03-02T09:03:13.613Z,-1.0
2018-03-02T09:04:15.275Z,-1.1
2018-03-02T09:05:16.943Z,-1.6
2018-03-02T09:06:18.601Z,-1.9
2018-03-02T09:07:20.258Z,-2.4
2018-03-02T09:08:21.925Z,-1.3
2018-03-02T09:09:23.583Z,-1.9
2018-03-02T09:10:25.240Z,-2.0
2018-03-02T09:11:26.899Z,-3.1
2018-03-02T09:12:28.559Z,-2.1
2018-03-02T09:13:30.221Z,-1.3
2018-03-02T09:14:31.888Z,-2.1
2018-03-02T09:15:33.560Z,-1.4
2018-03-02T09:16:35.234Z,-1.1
2018-03-02T09:17:36.884Z,-0.9
2018-03-02T09:18:38.546Z,-0.9
2018-03-02T09:19:40.211Z,-2.4
2018-03-02T09:20:41.873Z,-2.7
2018-03-02T09:21:43.532Z,-1.9
2018-03-02T09:22:45.188Z,-1.7
2018-03-02T09:23:46.867Z,-1.1
2018-03-02T09:24:48.513Z,-1.5
2018-03-02T09:25:50.187Z,-1.3
2018-03-02T09:26:51.842Z,-2.2
2018-03-02T09:27:53.505Z,-1.0
2018-03-02T09:28:55.171Z,-0.5
2018-03-02T09:29:56.840Z,-1.5
2018-03-02T09:30:58.547Z,-1.3
2018-03-02T09:32:00.183Z,-0.9
2018-03-02T09:33:01.846Z,-0.8
2018-03-02T09:34:03.505Z,-1.8
2018-03-02T09:35:05.168Z,-1.9
2018-03-02T09:36:06.825Z,-1.9
2018-03-02T09:37:08.519Z,-1.6
2018-03-02T09:38:10.172Z,-1.0
2018-03-02T09:39:11.840Z,0.1
2018-03-02T09:40:13.496Z,0.7
2018-03-02T09:41:15.162Z,0.8
2018-03-02T09:42:16.823Z,0.1
2018-03-02T09:43:18.482Z,0.3
2018-03-02T09:44:20.182Z,-0.1
2018-03-02T09:45:21.846Z,-1.2
2018-03-02T09:46:23.518Z,-0.5
2018-03-02T09:47:25.183Z,-0.9
2018-03-02T09:48:26.845Z,-1.3
2018-03-02T09:49:28.511Z,-1.9
2018-03-02T09:50:30.163Z,-1.6
2018-03-02T09:51:31.831Z,-1.1
2018-03-02T09:52:33.498Z,-2.1
2018-03-02T09:53:35.810Z,-2.5
2018-03-02T09:54:37.485Z,-2.7
2018-03-02T09:55:39.142Z,-2.0
2018-03-02T09:56:40.799Z,-2.3
2018-03-02T09:57:42.462Z,-1.7
2018-03-02T09:58:44.129Z,-1.3
2018-03-02T09:59:45.801Z,-1.5
2018-03-02T10:00:47.473Z,-1.5
2018-03-02T10:01:49.124Z,-1.2
2018-03-02T10:02:50.789Z,-1.0
2018-03-02T10:03:52.455Z,-1.5
2018-03-02T10:04:54.108Z,-1.7
2018-03-02T10:05:55.768Z,-2.2
2018-03-02T10:06:57.432Z,-2.0
2018-03-02T10:07:59.105Z,-2.7
2018-03-02T10:09:00.767Z,-1.7
2018-03-02T10:10:02.425Z,-2.4
2018-03-02T10:11:04.088Z,-2.9
2018-03-02T10:12:05.751Z,-2.8
2018-03-02T10:13:07.428Z,-2.9
2018-03-02T10:14:09.094Z,-3.1
2018-03-02T10:15:10.765Z,-2.7
2018-03-02T10:16:12.426Z,-2.4
2018-03-02T10:17:14.087Z,-2.5
2018-03-02T10:18:15.755Z,-2.1
2018-03-02T10:19:17.419Z,-1.7
2018-03-02T10:20:19.081Z,-1.6
2018-03-02T10:21:20.751Z,-2.3
2018-03-02T10:22:22.415Z,-2.1
2018-03-02T10:23:24.085Z,-2.3
2018-03-02T10:24:25.731Z,-2.2
2018-03-02T10:25:27.392Z,-1.6
2018-03-02T10:26:29.058Z,-1.5
2018-03-02T10:27:30.740Z,-2.0
2018-03-02T10:28:32.392Z,-2.2
2018-03-02T10:29:34.048Z,-1.9
2018-03-02T10:30:35.710Z,-1.8
2018-03-02T10:31:37.387Z,-1.6
2018-03-02T10:32:39.050Z,-1.6
2018-03-02T10:33:40.716Z,-1.4
2018-03-02T10:34:42.389Z,-2.1
2018-03-02T10:35:44.093Z,-1.8
2018-03-02T10:36:45.745Z,-1.8
2018-03-02T10:37:47.411Z,-2.0
2018-03-02T10:38:49.064Z,-1.7
2018-03-02T10:39:50.732Z,-2.2
2018-03-02T10:40:52.398Z,-1.7
2018-03-02T10:41:54.065Z,-2.2
2018-03-02T10:42:55.725Z,-1.4
2018-03-02T10:43:57.395Z,-1.4
2018-03-02T10:44:59.052Z,-1.4
2018-03-02T10:46:00.711Z,-1.2
2018-03-02T10:47:02.381Z,-1.1
2018-03-02T10:48:04.044Z,-1.6
2018-03-02T10:49:05.700Z,-1.6
2018-03-02T10:50:07.368Z,-1.6
2018-03-02T10:51:09.029Z,-1.2
2018-03-02T10:52:10.688Z,-1.6
2018-03-02T10:53:12.353Z,-1.4
2018-03-02T10:54:14.026Z,-0.5
2018-03-02T10:55:15.677Z,-0.6
2018-03-02T11:01:46.442Z,-0.6
2018-03-02T11:02:48.090Z,0.1
2018-03-02T11:03:49.741Z,0.4
2018-03-02T11:04:51.411Z,-0.6
2018-03-02T11:05:53.072Z,-0.3
2018-03-02T11:06:54.738Z,-0.4
2018-03-02T11:07:56.404Z,-0.5
2018-03-02T11:08:58.063Z,-0.3
2018-03-02T11:09:59.717Z,0.0
2018-03-02T11:11:01.383Z,-0.1
2018-03-02T11:12:03.041Z,0.1
2018-03-02T11:13:04.721Z,0.4
2018-03-02T11:14:06.387Z,0.7
2018-03-02T11:15:08.044Z,0.3
2018-03-02T11:16:09.722Z,0.3
2018-03-02T11:17:11.379Z,-0.3
2018-03-02T11:18:13.038Z,0.0
2018-03-02T11:19:14.697Z,-0.4
2018-03-02T11:20:16.368Z,-0.3
2018-03-02T11:21:18.016Z,0.5
2018-03-02T11:22:19.677Z,0.9
2018-03-02T11:23:21.339Z,1.0
2018-03-02T11:24:23.019Z,1.1
2018-03-02T11:25:24.674Z,0.6
2018-03-02T11:26:26.337Z,0.8
2018-03-02T11:27:28.000Z,-0.4
2018-03-02T11:28:29.662Z,-1.1
2018-03-02T11:29:31.340Z,-0.7
2018-03-02T11:30:33.002Z,-0.1
2018-03-02T11:31:34.665Z,0.4
2018-03-02T11:32:36.322Z,0.5
2018-03-02T11:33:37.990Z,0.3
2018-03-02T11:34:39.681Z,0.2
2018-03-02T11:35:41.344Z,0.4
2018-03-02T11:36:43.001Z,0.4
2018-03-02T11:37:44.659Z,0.8
2018-03-02T11:38:46.314Z,1.7
2018-03-02T11:39:47.976Z,0.5
2018-03-02T11:40:49.643Z,-0.4
2018-03-02T11:41:51.315Z,-0.3
2018-03-02T11:42:52.978Z,0.1
2018-03-02T11:43:54.645Z,0.5
2018-03-02T11:44:56.304Z,0.1
2018-03-02T11:45:57.971Z,-0.5
2018-03-02T11:46:59.642Z,-0.8
2018-03-02T11:48:01.299Z,-0.3
2018-03-02T11:49:02.966Z,-0.6
2018-03-02T11:50:04.629Z,-1.0
2018-03-02T11:51:06.291Z,-0.7
2018-03-02T11:52:07.970Z,-1.1
2018-03-02T11:53:09.631Z,-1.4
2018-03-02T11:54:11.292Z,-1.1
2018-03-02T11:55:12.958Z,-1.1
2018-03-02T11:56:14.622Z,-1.1
2018-03-02T11:57:16.293Z,-0.8
2018-03-02T11:58:17.961Z,-1.0
2018-03-02T11:59:20.576Z,-0.9
2018-03-02T12:00:22.238Z,-0.5
2018-03-02T12:01:23.916Z,-0.5
2018-03-02T12:02:25.573Z,-0.5
2018-03-02T12:03:27.359Z,-0.8
2018-03-02T12:04:28.979Z,-1.4
2018-03-02T12:05:30.639Z,-1.3
2018-03-02T12:06:32.949Z,-1.4
2018-03-02T12:07:34.671Z,-1.0
2018-03-02T12:08:36.328Z,-1.1
2018-03-02T12:09:38.213Z,-1.4
2018-03-02T12:10:39.916Z,-1.5
2018-03-02T12:11:41.529Z,-1.4
2018-03-02T12:12:43.202Z,-1.2
2018-03-02T12:13:44.862Z,-1.2
2018-03-02T12:14:46.530Z,-1.1
2018-03-02T12:15:48.193Z,-1.2
2018-03-02T12:16:49.913Z,-1.1
2018-03-02T12:17:51.545Z,-1.1
2018-03-02T12:18:53.621Z,-1.1
2018-03-02T12:19:55.227Z,-1.0
2018-03-02T12:20:56.894Z,-1.0
2018-03-02T12:21:58.562Z,-0.6
2018-03-02T12:23:00.236Z,-1.0
2018-03-02T12:24:01.895Z,-1.5
2018-03-02T12:25:03.555Z,-1.5
2018-03-02T12:26:05.350Z,-1.5
2018-03-02T12:27:07.008Z,-1.5
2018-03-02T12:28:08.670Z,-1.5
2018-03-02T12:29:10.327Z,-1.5
2018-03-02T12:30:11.998Z,-1.2
2018-03-02T12:31:13.659Z,-1.1
2018-03-02T12:32:15.321Z,-0.9
2018-03-02T12:33:16.999Z,-0.9
2018-03-02T12:34:18.661Z,-0.7
2018-03-02T12:35:20.335Z,-0.1
2018-03-02T12:36:21.978Z,0.2
2018-03-02T12:37:23.628Z,-0.2
2018-03-02T12:38:25.300Z,-0.5
2018-03-02T12:39:26.960Z,-0.5
2018-03-02T12:40:28.621Z,-0.4
2018-03-02T12:41:30.292Z,-1.3
2018-03-02T12:42:31.957Z,-1.1
2018-03-02T12:43:33.625Z,-1.0
2018-03-02T12:44:35.343Z,-1.0
2018-03-02T12:45:36.958Z,-0.7
2018-03-02T12:46:38.624Z,-0.8
2018-03-02T12:47:40.277Z,-0.5
2018-03-02T12:48:41.943Z,-0.3
2018-03-02T12:49:43.613Z,-0.5
2018-03-02T12:50:45.267Z,-0.8
2018-03-02T12:51:46.940Z,-1.1
2018-03-02T12:52:48.606Z,-1.0
2018-03-02T12:53:50.286Z,-0.2
2018-03-02T12:54:51.950Z,-0.8
2018-03-02T12:55:53.641Z,-1.1
2018-03-02T12:56:55.357Z,-0.8
2018-03-02T12:57:57.015Z,-0.6
2018-03-02T12:59:00.256Z,-0.3
2018-03-02T13:00:02.735Z,0.0
2018-03-02T13:01:05.336Z,0.3
2018-03-02T13:02:06.913Z,0.5
2018-03-02T13:03:09.052Z,0.5
2018-03-02T13:04:10.725Z,0.0
2018-03-02T13:05:12.387Z,-0.3
2018-03-02T13:06:14.537Z,-0.6
2018-03-02T13:07:17.285Z,-0.1
2018-03-02T13:08:18.855Z,0.3
2018-03-02T13:09:20.857Z,-0.1
2018-03-02T13:10:23.456Z,0.2
2018-03-02T13:11:25.143Z,-0.3
2018-03-02T13:12:26.821Z,-0.3
2018-03-02T13:13:28.488Z,-0.8
2018-03-02T13:14:30.172Z,-0.5
2018-03-02T13:15:31.847Z,-0.5
2018-03-02T13:16:33.507Z,-0.8
2018-03-02T13:17:35.183Z,-0.8
2018-03-02T13:18:36.859Z,-0.6
2018-03-02T13:19:39.455Z,-1.0
2018-03-02T13:20:41.129Z,-1.0
2018-03-02T13:21:42.799Z,-1.0
2018-03-02T13:22:44.482Z,-1.2
2018-03-02T13:23:48.012Z,-0.9
2018-03-02T13:24:49.577Z,-0.5
2018-03-02T13:25:51.234Z,-0.4
2018-03-02T13:26:53.439Z,-0.3
2018-03-02T13:27:54.917Z,-1.1
2018-03-02T13:28:56.576Z,-0.7
2018-03-02T13:29:59.414Z,-0.8
2018-03-02T13:31:01.097Z,-1.1
2018-03-02T13:32:03.552Z,-1.3
2018-03-02T13:33:07.893Z,-1.4
2018-03-02T13:34:11.027Z,-1.3
2018-03-02T13:35:13.533Z,-1.8
2018-03-02T13:36:15.894Z,-1.7
2018-03-02T13:37:17.673Z,-1.7
2018-03-02T13:38:19.415Z,-1.5
2018-03-02T13:39:21.114Z,-1.6
2018-03-02T13:40:22.947Z,-1.5
2018-03-02T13:41:24.604Z,-1.3
2018-03-02T13:42:26.298Z,-1.0
2018-03-02T13:43:27.984Z,-1.1
2018-03-02T13:44:29.659Z,-1.1
2018-03-02T13:45:31.386Z,-1.3
2018-03-02T13:46:34.051Z,-1.4
2018-03-02T13:47:37.058Z,-1.5
2018-03-02T13:48:41.088Z,-1.5
2018-03-02T13:49:43.000Z,-1.5
2018-03-02T13:50:45.254Z,-1.6
2018-03-02T13:51:47.120Z,-1.8
2018-03-02T13:52:48.956Z,-1.6
2018-03-02T13:53:52.446Z,-1.6
2018-03-02T13:54:54.147Z,-1.7
2018-03-02T13:55:56.798Z,-1.8
2018-03-02T13:56:58.554Z,-1.9
2018-03-02T13:58:00.695Z,-1.7